ESSV/VBY METAR and TAF weather

Enter ICAO airport designator
Station Type Date Time Source
ESSV METAR 2022/08/16 19:50 UTC NOAA

ESSV 161950Z AUTO 15006KT 9999 NCD 22/18 Q1011


Station Type Date Time Source
ESSV Decoded METAR 2022/08/16 19:50 UTC NOAA

Visby Flygplats, Sweden (ESSV) 57-40N 018-21E 47M
Aug 16, 2022 - 03:50 PM EDT / 2022.08.16 1950 UTC
Wind: from the SSE (150 degrees) at 7 MPH (6 KT):0
Visibility: greater than 7 mile(s):0
Temperature: 71 F (22 C)
Dew Point: 64 F (18 C)
Relative Humidity: 78%
Pressure (altimeter): 29.85 in. Hg (1011 hPa)
ob: ESSV 161950Z AUTO 15006KT 9999 NCD 22/18 Q1011
cycle: 20

Station Type Date Time Source
ESSV TAF 2017/09/20 09:39 UTC NOAA

TAF COR TAF COR ESSV 200840Z 2009/2021 10005KT 9999 BKN030 PROB40 2009/2016 4000 TS SHRA BKN015CB

Example: see airport list